Terminal Aerodrome Forecast
Issued by NWS Binghamton, NY

Home | Current Version | Previous Version | Text Only | Print | Product List | Glossary On
Versions: 1 2 3 4 5 6 7 8 9 10 11 12 13 14 15 16 17 18 19 20 21 22
000
FTUS41 KBGM 281100
TAFSYR
TAF
KSYR 281130Z 2812/2912 27010KT 1SM -SN OVC012
     FM281400 26010KT P6SM -SHSN SCT015 BKN035
     FM290000 23005KT P6SM SCT040 OVC100
     FM290700 20004KT P6SM OVC060=

USA.gov is the U.S. government's official web portal to all federal, state and local government web resources and services.